createdAt,value
2023-04-16T00:01:01.267Z,97023.03
2023-04-16T00:03:28.041Z,97029.50
2023-04-16T00:05:54.874Z,97032.66
2023-04-16T00:08:21.502Z,97033.38
2023-04-16T00:10:48.089Z,97032.41
2023-04-16T00:13:14.665Z,97033.38
2023-04-16T00:15:41.232Z,97034.56
2023-04-16T00:18:07.841Z,97033.75
2023-04-16T00:20:34.446Z,97037.00
2023-04-16T00:23:01.000Z,97036.81
2023-04-16T00:25:27.598Z,97042.41
2023-04-16T00:27:54.217Z,97037.91
2023-04-16T00:30:20.898Z,97038.91
2023-04-16T00:32:47.517Z,97041.69
2023-04-16T00:35:14.096Z,97037.53
2023-04-16T00:37:40.687Z,97033.22
2023-04-16T00:40:07.278Z,97034.13
2023-04-16T00:42:33.871Z,97041.56
2023-04-16T00:45:00.471Z,97041.19
2023-04-16T00:47:27.074Z,97042.09
2023-04-16T00:49:53.658Z,97044.09
2023-04-16T00:52:20.248Z,97035.50
2023-04-16T00:54:46.789Z,97044.06
2023-04-16T00:57:13.377Z,97037.31
2023-04-16T00:59:39.963Z,97043.28
2023-04-16T01:02:06.810Z,97045.03
2023-04-16T01:04:33.536Z,97046.78
2023-04-16T01:07:00.250Z,97044.25
2023-04-16T01:09:26.855Z,97052.34
2023-04-16T01:11:53.402Z,97047.19
2023-04-16T01:14:20.025Z,97051.97
2023-04-16T01:16:46.626Z,97057.84
2023-04-16T01:19:13.182Z,97059.63
2023-04-16T01:21:39.776Z,97056.75
2023-04-16T01:24:06.769Z,97061.28
2023-04-16T01:26:33.470Z,97064.06
2023-04-16T01:29:00.140Z,97065.00
2023-04-16T01:31:26.799Z,97058.84
2023-04-16T01:33:53.418Z,97056.50
2023-04-16T01:36:20.000Z,97065.34
2023-04-16T01:38:47.630Z,97073.09
2023-04-16T01:41:14.199Z,97071.75
2023-04-16T01:43:41.608Z,97068.84
2023-04-16T01:46:08.234Z,97070.66
2023-04-16T01:48:34.847Z,97078.88
2023-04-16T01:51:01.441Z,97077.97
2023-04-16T01:53:27.995Z,97080.84
2023-04-16T01:55:54.584Z,97078.81
2023-04-16T01:58:21.132Z,97076.31
2023-04-16T02:00:47.782Z,97071.09
2023-04-16T02:03:14.471Z,97078.88
2023-04-16T02:05:41.165Z,97071.41
2023-04-16T02:08:07.793Z,97078.16
2023-04-16T02:10:34.483Z,97077.94
2023-04-16T02:13:01.104Z,97081.19
2023-04-16T02:15:27.769Z,97088.88
2023-04-16T02:17:54.361Z,97087.78
2023-04-16T02:20:20.988Z,97095.28
2023-04-16T02:22:47.585Z,97090.50
2023-04-16T02:25:14.204Z,97101.22
2023-04-16T02:27:41.617Z,97106.31
2023-04-16T02:30:08.205Z,97103.84
2023-04-16T02:32:34.823Z,97110.84
2023-04-16T02:35:01.484Z,97106.25
2023-04-16T02:37:28.143Z,97102.25
2023-04-16T02:39:54.703Z,97100.97
2023-04-16T02:42:21.480Z,97109.88
2023-04-16T02:44:48.083Z,97109.00
2023-04-16T02:47:14.710Z,97110.28
2023-04-16T02:49:41.305Z,97107.97
2023-04-16T02:52:07.942Z,97110.53
2023-04-16T02:54:34.529Z,97111.53
2023-04-16T02:57:01.095Z,97114.00
2023-04-16T02:59:27.780Z,97110.63
2023-04-16T03:01:54.432Z,97110.28
2023-04-16T03:04:21.119Z,97109.16
2023-04-16T03:06:47.703Z,97103.44
2023-04-16T03:09:14.276Z,97106.78
2023-04-16T03:11:40.840Z,97107.34
2023-04-16T03:14:07.449Z,97103.41
2023-04-16T03:16:34.005Z,97097.69
2023-04-16T03:19:00.596Z,97102.88
2023-04-16T03:21:27.150Z,97110.66
2023-04-16T03:23:53.723Z,97117.41
2023-04-16T03:26:20.450Z,97127.06
2023-04-16T03:28:47.080Z,97117.75
2023-04-16T03:31:13.712Z,97123.28
2023-04-16T03:33:40.337Z,97128.94
2023-04-16T03:36:07.015Z,97131.66
2023-04-16T03:38:33.603Z,97129.50
2023-04-16T03:41:00.199Z,97132.88
2023-04-16T03:43:26.803Z,97135.00
2023-04-16T03:45:53.388Z,97141.88
2023-04-16T03:48:19.966Z,97140.06
2023-04-16T03:50:46.949Z,97135.28
2023-04-16T03:53:13.572Z,97135.53
2023-04-16T03:55:40.151Z,97133.22
2023-04-16T03:58:06.735Z,97141.03
2023-04-16T04:00:33.344Z,97147.19
2023-04-16T04:03:00.102Z,97140.66
2023-04-16T04:05:26.916Z,97153.53
2023-04-16T04:07:53.490Z,97152.81
2023-04-16T04:10:20.074Z,97151.28
2023-04-16T04:12:46.662Z,97149.47
2023-04-16T04:15:13.232Z,97149.81
2023-04-16T04:17:39.931Z,97152.16
2023-04-16T04:20:06.631Z,97152.94
2023-04-16T04:22:33.201Z,97155.03
2023-04-16T04:24:59.758Z,97154.72
2023-04-16T04:27:26.363Z,97159.06
2023-04-16T04:29:52.983Z,97152.88
2023-04-16T04:32:19.628Z,97163.69
2023-04-16T04:34:46.210Z,97162.69
2023-04-16T04:37:12.806Z,97161.34
2023-04-16T04:39:39.769Z,97166.72
2023-04-16T04:42:06.385Z,97168.16
2023-04-16T04:44:33.018Z,97176.19
2023-04-16T04:46:59.642Z,97167.16
2023-04-16T04:49:26.260Z,97180.84
2023-04-16T04:51:52.880Z,97177.63
2023-04-16T04:54:19.478Z,97178.28
2023-04-16T04:56:46.650Z,97190.03
2023-04-16T04:59:13.213Z,97187.72
2023-04-16T05:01:39.827Z,97193.41
2023-04-16T05:04:06.468Z,97189.41
2023-04-16T05:06:33.085Z,97190.16
2023-04-16T05:08:59.686Z,97190.72
2023-04-16T05:11:26.272Z,97191.81
2023-04-16T05:13:52.935Z,97196.03
2023-04-16T05:16:19.527Z,97199.66
2023-04-16T05:18:46.118Z,97198.19
2023-04-16T05:21:12.702Z,97198.44
2023-04-16T05:23:39.276Z,97202.50
2023-04-16T05:26:05.850Z,97209.59
2023-04-16T05:28:32.570Z,97211.59
2023-04-16T05:30:59.248Z,97219.50
2023-04-16T05:33:25.881Z,97219.53
2023-04-16T05:35:52.459Z,97219.72
2023-04-16T05:38:19.045Z,97223.94
2023-04-16T05:40:45.812Z,97230.88
2023-04-16T05:43:12.407Z,97215.09
2023-04-16T05:45:38.976Z,97226.09
2023-04-16T05:48:05.562Z,97224.47
2023-04-16T05:50:32.419Z,97227.28
2023-04-16T05:52:58.965Z,97228.25
2023-04-16T05:55:25.546Z,97233.88
2023-04-16T05:57:52.127Z,97236.22
2023-04-16T06:00:18.728Z,97237.94
2023-04-16T06:02:45.427Z,97236.81
2023-04-16T06:05:12.132Z,97233.78
2023-04-16T06:07:38.754Z,97234.06
2023-04-16T06:10:05.395Z,97238.19
2023-04-16T06:12:34.023Z,97241.34
2023-04-16T06:15:00.608Z,97240.38
2023-04-16T06:17:27.180Z,97235.44
2023-04-16T06:19:54.134Z,97239.81
2023-04-16T06:22:20.892Z,97243.31
2023-04-16T06:24:47.483Z,97248.19
2023-04-16T06:27:15.086Z,97245.97
2023-04-16T06:29:42.031Z,97249.94
2023-04-16T06:32:08.953Z,97246.09
2023-04-16T06:34:35.631Z,97249.25
2023-04-16T06:37:02.193Z,97257.59
2023-04-16T06:39:28.772Z,97254.72
2023-04-16T06:41:55.363Z,97257.47
2023-04-16T06:44:22.091Z,97257.06
2023-04-16T06:46:49.169Z,97259.88
2023-04-16T06:49:15.770Z,97254.28
2023-04-16T06:51:42.396Z,97251.84
2023-04-16T06:54:09.004Z,97255.06
2023-04-16T06:56:35.587Z,97254.00
2023-04-16T06:59:02.173Z,97261.34
2023-04-16T07:01:28.841Z,97256.47
2023-04-16T07:03:55.638Z,97257.34
2023-04-16T07:06:22.388Z,97248.91
2023-04-16T07:08:48.959Z,97253.31
2023-04-16T07:11:15.551Z,97255.59
2023-04-16T07:13:42.145Z,97255.06
2023-04-16T07:16:08.806Z,97260.97
2023-04-16T07:18:35.462Z,97264.06
2023-04-16T07:21:02.045Z,97274.50
2023-04-16T07:23:28.620Z,97275.59
2023-04-16T07:25:55.213Z,97275.00
2023-04-16T07:28:21.858Z,97274.91
2023-04-16T07:30:48.447Z,97283.28
2023-04-16T07:33:15.006Z,97282.53
2023-04-16T07:35:41.645Z,97283.91
2023-04-16T07:38:08.218Z,97287.13
2023-04-16T07:40:34.820Z,97285.16
2023-04-16T07:43:03.885Z,97296.53
2023-04-16T07:45:30.450Z,97290.06
2023-04-16T07:47:57.154Z,97292.88
2023-04-16T07:50:23.832Z,97293.88
2023-04-16T07:52:50.493Z,97293.91
2023-04-16T07:55:17.049Z,97294.94
2023-04-16T07:57:43.850Z,97297.97
2023-04-16T08:00:10.471Z,97301.22
2023-04-16T08:02:37.547Z,97300.81
2023-04-16T08:05:04.356Z,97304.47
2023-04-16T08:07:32.718Z,97303.47
2023-04-16T08:10:00.666Z,97308.28
2023-04-16T08:12:27.303Z,97297.50
2023-04-16T08:14:53.930Z,97298.00
2023-04-16T08:17:20.510Z,97306.84
2023-04-16T08:19:47.117Z,97305.97
2023-04-16T08:22:13.784Z,97310.31
2023-04-16T08:24:40.366Z,97306.38
2023-04-16T08:27:17.684Z,97312.13
2023-04-16T08:29:45.499Z,97319.50
2023-04-16T08:32:12.104Z,97321.91
2023-04-16T08:34:38.932Z,97316.63
2023-04-16T08:37:05.508Z,97326.22
2023-04-16T08:39:32.121Z,97319.44
2023-04-16T08:41:58.673Z,97314.53
2023-04-16T08:44:25.237Z,97318.06
2023-04-16T08:46:51.855Z,97311.19
2023-04-16T08:49:18.442Z,97317.22
2023-04-16T08:51:45.025Z,97319.09
2023-04-16T08:54:11.611Z,97323.03
2023-04-16T08:56:38.221Z,97329.97
2023-04-16T08:59:04.813Z,97333.69
2023-04-16T09:01:31.442Z,97332.84
2023-04-16T09:03:58.193Z,97327.44
2023-04-16T09:06:24.885Z,97331.88
2023-04-16T09:08:51.506Z,97326.28
2023-04-16T09:11:18.088Z,97330.72
2023-04-16T09:13:44.982Z,97328.19
2023-04-16T09:16:11.699Z,97327.13
2023-04-16T09:18:38.380Z,97325.34
2023-04-16T09:21:04.983Z,97338.19
2023-04-16T09:23:31.549Z,97332.91
2023-04-16T09:25:58.117Z,97329.84
2023-04-16T09:28:24.699Z,97333.81
2023-04-16T09:30:51.289Z,97335.06
2023-04-16T09:33:17.916Z,97335.72
2023-04-16T09:35:44.496Z,97333.50
2023-04-16T09:38:11.104Z,97332.00
2023-04-16T09:40:37.950Z,97336.56
2023-04-16T09:43:04.523Z,97331.50
2023-04-16T09:45:31.154Z,97331.88
2023-04-16T09:47:57.805Z,97327.13
2023-04-16T09:50:24.413Z,97333.13
2023-04-16T09:52:51.134Z,97325.97
2023-04-16T09:55:17.717Z,97333.66
2023-04-16T09:57:44.316Z,97327.91
2023-04-16T10:00:11.317Z,97331.22
2023-04-16T10:02:38.325Z,97330.34
2023-04-16T10:05:04.992Z,97322.81
2023-04-16T10:07:31.636Z,97325.69
2023-04-16T10:09:58.191Z,97316.88
2023-04-16T10:12:24.827Z,97325.69
2023-04-16T10:14:51.422Z,97321.28
2023-04-16T10:17:18.070Z,97324.63
2023-04-16T10:19:44.630Z,97321.19
2023-04-16T10:22:11.359Z,97320.38
2023-04-16T10:24:37.992Z,97316.13
2023-04-16T10:27:04.552Z,97316.94
2023-04-16T10:29:31.188Z,97316.03
2023-04-16T10:31:57.804Z,97315.50
2023-04-16T10:34:24.368Z,97316.34
2023-04-16T10:36:50.981Z,97313.56
2023-04-16T10:39:17.631Z,97300.66
2023-04-16T10:41:44.397Z,97295.81
2023-04-16T10:44:11.101Z,97299.06
2023-04-16T10:46:37.929Z,97296.78
2023-04-16T10:49:04.600Z,97290.88
2023-04-16T10:51:31.183Z,97284.84
2023-04-16T10:53:57.805Z,97290.31
2023-04-16T10:56:24.406Z,97290.47
2023-04-16T10:58:51.230Z,97289.31
2023-04-16T11:01:19.046Z,97287.59
2023-04-16T11:03:45.834Z,97289.91
2023-04-16T11:06:12.561Z,97295.78
2023-04-16T11:08:53.380Z,97289.06
2023-04-16T11:11:21.022Z,97286.56
2023-04-16T11:13:47.746Z,97286.19
2023-04-16T11:16:14.403Z,97292.94
2023-04-16T11:18:41.570Z,97289.47
2023-04-16T11:21:17.780Z,97286.56
2023-04-16T11:23:44.410Z,97283.25
2023-04-16T11:26:10.977Z,97289.88
2023-04-16T11:28:37.596Z,97282.06
2023-04-16T11:31:04.238Z,97273.84
2023-04-16T11:33:30.872Z,97273.44
2023-04-16T11:35:57.437Z,97278.19
2023-04-16T11:38:24.118Z,97270.69
2023-04-16T11:40:50.706Z,97280.63
2023-04-16T11:43:17.295Z,97276.38
2023-04-16T11:45:43.945Z,97277.41
2023-04-16T11:48:11.259Z,97277.56
2023-04-16T11:50:37.953Z,97274.53
2023-04-16T11:53:04.566Z,97279.28
2023-04-16T11:55:31.155Z,97279.09
2023-04-16T11:57:57.778Z,97280.34
2023-04-16T12:00:25.091Z,97286.41
2023-04-16T12:02:51.980Z,97280.47
2023-04-16T12:05:18.799Z,97281.34
2023-04-16T12:07:45.410Z,97279.59
2023-04-16T12:10:12.100Z,97271.00
2023-04-16T12:12:38.735Z,97282.13
2023-04-16T12:15:05.460Z,97265.78
2023-04-16T12:17:32.159Z,97259.22
2023-04-16T12:19:58.807Z,97260.78
2023-04-16T12:22:25.398Z,97262.53
2023-04-16T12:24:51.970Z,97252.66
2023-04-16T12:27:18.536Z,97249.72
2023-04-16T12:29:45.123Z,97252.47
2023-04-16T12:32:11.764Z,97255.44
2023-04-16T12:34:48.761Z,97250.53
2023-04-16T12:37:16.189Z,97251.31
2023-04-16T12:39:43.102Z,97258.09
2023-04-16T12:42:09.769Z,97261.88
2023-04-16T12:44:36.426Z,97259.50
2023-04-16T12:47:03.013Z,97258.97
2023-04-16T12:49:30.637Z,97252.50
2023-04-16T12:51:57.243Z,97249.84
2023-04-16T12:54:23.840Z,97251.28
2023-04-16T12:56:50.423Z,97246.13
2023-04-16T12:59:17.015Z,97242.84
2023-04-16T13:01:43.692Z,97245.34
2023-04-16T13:04:10.555Z,97245.84
2023-04-16T13:06:37.238Z,97241.97
2023-04-16T13:09:03.816Z,97246.25
2023-04-16T13:11:30.513Z,97245.84
2023-04-16T13:13:57.323Z,97255.75
2023-04-16T13:16:24.006Z,97247.25
2023-04-16T13:18:50.593Z,97258.50
2023-04-16T13:21:17.182Z,97254.16
2023-04-16T13:23:43.749Z,97264.03
2023-04-16T13:26:12.680Z,97262.69
2023-04-16T13:28:39.273Z,97272.19
2023-04-16T13:31:06.150Z,97265.25
2023-04-16T13:33:32.768Z,97273.00
2023-04-16T13:35:59.354Z,97270.63
2023-04-16T13:38:25.949Z,97271.75
2023-04-16T13:40:52.510Z,97270.91
2023-04-16T13:43:19.140Z,97275.91
2023-04-16T13:45:45.716Z,97273.84
2023-04-16T13:48:12.326Z,97274.66
2023-04-16T13:50:38.957Z,97268.53
2023-04-16T13:53:05.609Z,97273.66
2023-04-16T13:55:32.165Z,97273.66
2023-04-16T13:57:58.894Z,97273.84
2023-04-16T14:00:25.448Z,97275.81
2023-04-16T14:02:52.334Z,97277.50
2023-04-16T14:05:19.035Z,97278.44
2023-04-16T14:07:45.590Z,97279.94
2023-04-16T14:10:12.202Z,97276.25
2023-04-16T14:12:39.132Z,97270.84
2023-04-16T14:15:05.851Z,97276.50
2023-04-16T14:17:32.529Z,97274.94
2023-04-16T14:19:59.186Z,97270.63
2023-04-16T14:22:25.778Z,97273.84
2023-04-16T14:24:52.481Z,97262.59
2023-04-16T14:27:19.082Z,97263.56
2023-04-16T14:29:45.736Z,97266.84
2023-04-16T14:32:12.401Z,97258.47
2023-04-16T14:34:39.024Z,97273.94
2023-04-16T14:37:05.623Z,97264.28
2023-04-16T14:39:32.290Z,97261.81
2023-04-16T14:41:58.915Z,97264.09
2023-04-16T14:44:25.525Z,97273.13
2023-04-16T14:46:52.118Z,97277.91
2023-04-16T14:49:18.832Z,97273.47
2023-04-16T14:51:45.774Z,97281.81
2023-04-16T14:54:12.409Z,97278.22
2023-04-16T14:56:38.992Z,97283.38
2023-04-16T14:59:05.612Z,97283.66
2023-04-16T15:01:32.346Z,97289.75
2023-04-16T15:04:01.373Z,97287.84
2023-04-16T15:06:28.716Z,97289.81
2023-04-16T15:08:55.297Z,97296.00
2023-04-16T15:11:21.994Z,97299.03
2023-04-16T15:13:48.667Z,97294.97
2023-04-16T15:16:15.272Z,97292.16
2023-04-16T15:18:41.870Z,97295.84
2023-04-16T15:21:09.520Z,97302.72
2023-04-16T15:23:37.784Z,97299.91
2023-04-16T15:26:05.431Z,97301.59
2023-04-16T15:28:32.025Z,97304.41
2023-04-16T15:30:58.661Z,97306.81
2023-04-16T15:33:25.286Z,97304.38
2023-04-16T15:35:51.919Z,97314.34
2023-04-16T15:38:18.698Z,97304.97
2023-04-16T15:40:45.289Z,97304.25
2023-04-16T15:43:11.867Z,97309.94
2023-04-16T15:45:38.466Z,97316.31
2023-04-16T15:48:05.087Z,97320.31
2023-04-16T15:50:31.668Z,97315.81
2023-04-16T15:52:58.286Z,97317.22
2023-04-16T15:55:24.891Z,97327.44
2023-04-16T15:57:51.508Z,97331.44
2023-04-16T16:00:18.142Z,97324.28
2023-04-16T16:02:45.222Z,97331.88
2023-04-16T16:05:12.320Z,97337.47
2023-04-16T16:07:39.134Z,97332.00
2023-04-16T16:10:05.738Z,97336.59
2023-04-16T16:12:32.309Z,97333.56
2023-04-16T16:14:59.131Z,97332.22
2023-04-16T16:17:26.142Z,97335.63
2023-04-16T16:19:52.841Z,97338.97
2023-04-16T16:22:19.417Z,97338.06
2023-04-16T16:24:46.005Z,97353.16
2023-04-16T16:29:56.753Z,97352.03
2023-04-16T16:32:23.359Z,97344.31
2023-04-16T16:34:49.982Z,97360.72
2023-04-16T16:37:16.655Z,97352.75
2023-04-16T16:39:43.284Z,97354.69
2023-04-16T16:42:09.847Z,97356.66
2023-04-16T16:44:36.475Z,97356.72
2023-04-16T16:47:03.082Z,97366.25
2023-04-16T16:49:30.146Z,97368.09
2023-04-16T16:51:56.748Z,97370.47
2023-04-16T16:54:23.441Z,97370.56
2023-04-16T16:56:50.037Z,97372.19
2023-04-16T16:59:16.604Z,97376.19
2023-04-16T17:01:43.240Z,97373.97
2023-04-16T17:04:09.897Z,97379.22
2023-04-16T17:06:36.632Z,97371.63
2023-04-16T17:09:03.306Z,97376.78
2023-04-16T17:11:29.923Z,97383.78
2023-04-16T17:13:56.594Z,97384.84
2023-04-16T17:16:23.178Z,97377.78
2023-04-16T17:18:49.771Z,97387.72
2023-04-16T17:21:16.861Z,97386.38
2023-04-16T17:23:43.568Z,97389.81
2023-04-16T17:26:10.216Z,97383.31
2023-04-16T17:28:37.011Z,97391.25
2023-04-16T17:31:03.794Z,97388.84
2023-04-16T17:33:30.522Z,97379.47
2023-04-16T17:35:57.123Z,97385.66
2023-04-16T17:38:23.673Z,97378.38
2023-04-16T17:40:50.260Z,97378.00
2023-04-16T17:43:16.883Z,97378.69
2023-04-16T17:45:43.511Z,97388.31
2023-04-16T17:48:10.198Z,97391.41
2023-04-16T17:50:39.431Z,97401.75
2023-04-16T17:53:06.240Z,97402.13
2023-04-16T17:55:32.835Z,97399.78
2023-04-16T17:57:59.435Z,97405.75
2023-04-16T18:00:26.012Z,97409.03
2023-04-16T18:02:52.797Z,97411.66
2023-04-16T18:05:19.496Z,97408.03
2023-04-16T18:07:46.058Z,97417.34
2023-04-16T18:10:12.625Z,97424.13
2023-04-16T18:12:39.233Z,97418.00
2023-04-16T18:15:05.803Z,97425.53
2023-04-16T18:17:32.434Z,97428.69
2023-04-16T18:19:59.170Z,97432.34
2023-04-16T18:22:27.475Z,97441.16
2023-04-16T18:24:54.567Z,97439.91
2023-04-16T18:27:21.154Z,97440.31
2023-04-16T18:29:49.423Z,97446.19
2023-04-16T18:32:16.423Z,97448.59
2023-04-16T18:34:43.146Z,97445.53
2023-04-16T18:37:09.784Z,97457.13
2023-04-16T18:39:36.428Z,97454.25
2023-04-16T18:42:02.995Z,97461.59
2023-04-16T18:44:29.602Z,97459.16
2023-04-16T18:46:56.276Z,97458.03
2023-04-16T18:49:22.927Z,97455.56
2023-04-16T18:51:49.490Z,97465.31
2023-04-16T18:54:16.088Z,97463.69
2023-04-16T18:56:42.879Z,97466.53
2023-04-16T18:59:09.784Z,97469.00
2023-04-16T19:01:37.585Z,97467.75
2023-04-16T19:04:04.370Z,97475.50
2023-04-16T19:06:30.970Z,97474.09
2023-04-16T19:08:57.671Z,97473.28
2023-04-16T19:11:24.293Z,97466.13
2023-04-16T19:13:50.867Z,97462.88
2023-04-16T19:16:17.676Z,97457.03
2023-04-16T19:18:44.298Z,97453.34
2023-04-16T19:21:11.069Z,97455.78
2023-04-16T19:23:37.724Z,97454.16
2023-04-16T19:26:04.383Z,97456.00
2023-04-16T19:28:30.946Z,97457.22
2023-04-16T19:30:57.628Z,97461.69
2023-04-16T19:33:24.262Z,97458.22
2023-04-16T19:35:50.821Z,97461.50
2023-04-16T19:38:17.440Z,97458.41
2023-04-16T19:40:44.071Z,97456.00
2023-04-16T19:43:10.654Z,97451.91
2023-04-16T19:45:37.405Z,97456.00
2023-04-16T19:48:04.021Z,97453.38
2023-04-16T19:50:30.632Z,97456.00
2023-04-16T19:52:57.203Z,97447.69
2023-04-16T19:55:23.810Z,97448.69
2023-04-16T19:57:50.400Z,97448.88
2023-04-16T20:00:17.021Z,97455.81
2023-04-16T20:02:43.728Z,97457.81
2023-04-16T20:05:10.373Z,97447.88
2023-04-16T20:07:36.936Z,97457.63
2023-04-16T20:10:03.567Z,97455.41
2023-04-16T20:12:30.131Z,97454.78
2023-04-16T20:14:56.717Z,97453.53
2023-04-16T20:17:23.448Z,97451.13
2023-04-16T20:19:50.362Z,97452.13
2023-04-16T20:22:16.948Z,97455.94
2023-04-16T20:24:44.492Z,97450.03
2023-04-16T20:27:12.316Z,97451.63
2023-04-16T20:29:38.936Z,97447.63
2023-04-16T20:32:05.526Z,97443.31
2023-04-16T20:34:32.210Z,97444.75
2023-04-16T20:36:58.826Z,97443.09
2023-04-16T20:39:25.390Z,97441.94
2023-04-16T20:41:51.995Z,97442.91
2023-04-16T20:44:18.586Z,97438.44
2023-04-16T20:46:45.242Z,97433.38
2023-04-16T20:49:12.059Z,97428.72
2023-04-16T20:51:38.768Z,97425.13
2023-04-16T20:54:05.348Z,97425.91
2023-04-16T20:56:31.976Z,97422.06
2023-04-16T20:58:58.550Z,97423.41
2023-04-16T21:01:25.300Z,97421.00
2023-04-16T21:03:52.078Z,97417.97
2023-04-16T21:06:18.739Z,97425.25
2023-04-16T21:08:45.339Z,97426.69
2023-04-16T21:11:11.925Z,97421.03
2023-04-16T21:13:38.499Z,97423.09
2023-04-16T21:16:05.223Z,97418.19
2023-04-16T21:18:31.873Z,97421.41
2023-04-16T21:20:58.495Z,97423.69
2023-04-16T21:23:25.089Z,97425.13
2023-04-16T21:25:51.686Z,97426.75
2023-04-16T21:28:18.242Z,97429.19
2023-04-16T21:30:44.829Z,97421.03
2023-04-16T21:33:11.432Z,97426.94
2023-04-16T21:35:37.991Z,97422.66
2023-04-16T21:38:04.628Z,97420.84
2023-04-16T21:40:31.247Z,97422.88
2023-04-16T21:42:57.822Z,97423.88
2023-04-16T21:45:24.452Z,97428.16
2023-04-16T21:47:51.044Z,97428.53
2023-04-16T21:50:17.632Z,97424.91
2023-04-16T21:52:44.270Z,97429.38
2023-04-16T21:55:10.859Z,97422.25
2023-04-16T21:57:40.041Z,97427.94
2023-04-16T22:00:06.614Z,97421.44
2023-04-16T22:02:33.364Z,97422.19
2023-04-16T22:05:00.107Z,97420.16
2023-04-16T22:07:26.730Z,97414.25
2023-04-16T22:09:53.292Z,97423.88
2023-04-16T22:12:19.978Z,97419.78
2023-04-16T22:14:59.638Z,97420.44
2023-04-16T22:17:28.448Z,97422.06
2023-04-16T22:19:55.092Z,97409.06
2023-04-16T22:22:21.961Z,97410.22
2023-04-16T22:24:48.698Z,97415.63
2023-04-16T22:27:15.355Z,97416.88
2023-04-16T22:29:41.948Z,97413.91
2023-04-16T22:32:08.567Z,97410.50
2023-04-16T22:34:35.164Z,97417.59
2023-04-16T22:37:01.781Z,97416.59
2023-04-16T22:39:28.358Z,97413.84
2023-04-16T22:41:54.952Z,97409.47
2023-04-16T22:44:22.045Z,97413.72
2023-04-16T22:46:48.656Z,97405.81
2023-04-16T22:49:15.222Z,97417.00
2023-04-16T22:51:41.934Z,97412.13
2023-04-16T22:54:08.528Z,97419.22
2023-04-16T22:56:35.191Z,97413.13
2023-04-16T22:59:01.814Z,97412.06
2023-04-16T23:01:28.500Z,97408.75
2023-04-16T23:03:55.366Z,97411.38
2023-04-16T23:06:22.024Z,97409.00
2023-04-16T23:08:48.661Z,97408.63
2023-04-16T23:11:15.350Z,97410.84
2023-04-16T23:13:41.969Z,97409.63
2023-04-16T23:16:08.674Z,97405.63
2023-04-16T23:18:35.282Z,97400.94
2023-04-16T23:21:02.087Z,97415.75
2023-04-16T23:23:28.661Z,97404.19
2023-04-16T23:25:55.270Z,97410.28
2023-04-16T23:28:21.854Z,97402.75
2023-04-16T23:30:48.453Z,97399.72
2023-04-16T23:33:15.127Z,97400.28
2023-04-16T23:35:41.767Z,97396.88
2023-04-16T23:38:08.339Z,97392.22
2023-04-16T23:40:34.922Z,97399.72
2023-04-16T23:43:01.503Z,97399.53
2023-04-16T23:45:28.172Z,97395.81
2023-04-16T23:47:54.822Z,97388.75
2023-04-16T23:50:21.603Z,97383.66
2023-04-16T23:52:48.200Z,97385.09
2023-04-16T23:55:14.972Z,97384.06
2023-04-16T23:57:41.589Z,97384.09
